sensor_id;sensor_type;location;lat;lon;timestamp;temperature;humidity
1083;DHT22;530;51.448;7.238;2022-12-11T00:00:48;3.20;99.90
1083;DHT22;530;51.448;7.238;2022-12-11T00:03:17;3.10;99.90
1083;DHT22;530;51.448;7.238;2022-12-11T00:05:44;3.30;99.90
1083;DHT22;530;51.448;7.238;2022-12-11T00:08:11;3.20;99.90
1083;DHT22;530;51.448;7.238;2022-12-11T00:10:37;3.30;99.90
1083;DHT22;530;51.448;7.238;2022-12-11T00:13:02;3.10;99.90
1083;DHT22;530;51.448;7.238;2022-12-11T00:15:28;3.20;99.90
1083;DHT22;530;51.448;7.238;2022-12-11T00:17:54;3.10;99.90
1083;DHT22;530;51.448;7.238;2022-12-11T00:20:20;3.10;99.90
1083;DHT22;530;51.448;7.238;2022-12-11T00:22:45;3.10;99.90
1083;DHT22;530;51.448;7.238;2022-12-11T00:25:11;3.10;99.90
1083;DHT22;530;51.448;7.238;2022-12-11T00:27:37;2.90;99.90
1083;DHT22;530;51.448;7.238;2022-12-11T00:30:03;3.00;99.90
1083;DHT22;530;51.448;7.238;2022-12-11T00:32:29;3.10;99.90
1083;DHT22;530;51.448;7.238;2022-12-11T00:34:56;3.00;99.90
1083;DHT22;530;51.448;7.238;2022-12-11T00:37:22;2.80;99.90
1083;DHT22;530;51.448;7.238;2022-12-11T00:39:48;2.90;99.90
1083;DHT22;530;51.448;7.238;2022-12-11T00:42:13;2.80;99.90
1083;DHT22;530;51.448;7.238;2022-12-11T00:44:39;2.70;99.90
1083;DHT22;530;51.448;7.238;2022-12-11T00:47:04;3.00;99.90
1083;DHT22;530;51.448;7.238;2022-12-11T00:49:30;3.00;99.90
1083;DHT22;530;51.448;7.238;2022-12-11T00:51:56;2.90;99.90
1083;DHT22;530;51.448;7.238;2022-12-11T00:54:21;2.90;99.90
1083;DHT22;530;51.448;7.238;2022-12-11T00:56:47;3.10;99.90
1083;DHT22;530;51.448;7.238;2022-12-11T00:59:13;2.90;99.90
1083;DHT22;530;51.448;7.238;2022-12-11T01:01:38;2.70;99.90
1083;DHT22;530;51.448;7.238;2022-12-11T01:04:04;2.70;99.90
1083;DHT22;530;51.448;7.238;2022-12-11T01:06:30;3.00;99.90
1083;DHT22;530;51.448;7.238;2022-12-11T01:08:55;2.90;99.90
1083;DHT22;530;51.448;7.238;2022-12-11T01:11:41;3.00;99.90
1083;DHT22;530;51.448;7.238;2022-12-11T01:14:08;2.80;99.90
1083;DHT22;530;51.448;7.238;2022-12-11T01:16:34;2.70;99.90
1083;DHT22;530;51.448;7.238;2022-12-11T01:19:00;2.80;99.90
1083;DHT22;530;51.448;7.238;2022-12-11T01:21:25;2.70;99.90
1083;DHT22;530;51.448;7.238;2022-12-11T01:23:53;2.70;99.90
1083;DHT22;530;51.448;7.238;2022-12-11T01:26:18;2.80;99.90
1083;DHT22;530;51.448;7.238;2022-12-11T01:28:44;2.80;99.90
1083;DHT22;530;51.448;7.238;2022-12-11T01:31:17;3.00;99.90
1083;DHT22;530;51.448;7.238;2022-12-11T01:33:43;2.90;99.90
1083;DHT22;530;51.448;7.238;2022-12-11T01:36:18;2.90;99.90
1083;DHT22;530;51.448;7.238;2022-12-11T01:38:45;2.70;99.90
1083;DHT22;530;51.448;7.238;2022-12-11T01:41:11;2.80;99.90
1083;DHT22;530;51.448;7.238;2022-12-11T01:46:25;2.90;99.90
1083;DHT22;530;51.448;7.238;2022-12-11T01:48:52;2.90;99.90
1083;DHT22;530;51.448;7.238;2022-12-11T01:51:18;2.90;99.90
1083;DHT22;530;51.448;7.238;2022-12-11T01:53:49;2.80;99.90
1083;DHT22;530;51.448;7.238;2022-12-11T01:56:16;2.90;99.90
1083;DHT22;530;51.448;7.238;2022-12-11T01:59:03;3.00;99.90
1083;DHT22;530;51.448;7.238;2022-12-11T02:01:47;3.00;99.90
1083;DHT22;530;51.448;7.238;2022-12-11T02:04:15;2.80;99.90
1083;DHT22;530;51.448;7.238;2022-12-11T02:06:46;2.90;99.90
1083;DHT22;530;51.448;7.238;2022-12-11T02:09:24;2.90;99.90
1083;DHT22;530;51.448;7.238;2022-12-11T02:14:29;2.70;99.90
1083;DHT22;530;51.448;7.238;2022-12-11T02:17:08;2.80;99.90
1083;DHT22;530;51.448;7.238;2022-12-11T02:19:48;2.70;99.90
1083;DHT22;530;51.448;7.238;2022-12-11T02:31:22;2.80;99.90
1083;DHT22;530;51.448;7.238;2022-12-11T02:33:54;2.80;99.90
1083;DHT22;530;51.448;7.238;2022-12-11T02:36:24;2.90;99.90
1083;DHT22;530;51.448;7.238;2022-12-11T02:38:53;2.70;99.90
1083;DHT22;530;51.448;7.238;2022-12-11T02:41:22;2.70;99.90
1083;DHT22;530;51.448;7.238;2022-12-11T02:43:49;2.70;99.90
1083;DHT22;530;51.448;7.238;2022-12-11T02:46:17;2.70;99.90
1083;DHT22;530;51.448;7.238;2022-12-11T02:48:44;3.00;99.90
1083;DHT22;530;51.448;7.238;2022-12-11T02:51:13;2.90;99.90
1083;DHT22;530;51.448;7.238;2022-12-11T02:53:41;2.70;99.90
1083;DHT22;530;51.448;7.238;2022-12-11T02:57:03;2.90;99.90
1083;DHT22;530;51.448;7.238;2022-12-11T02:59:35;2.90;99.90
1083;DHT22;530;51.448;7.238;2022-12-11T03:02:03;2.90;99.90
1083;DHT22;530;51.448;7.238;2022-12-11T03:04:29;2.70;99.90
1083;DHT22;530;51.448;7.238;2022-12-11T03:06:58;2.70;99.90
1083;DHT22;530;51.448;7.238;2022-12-11T03:09:28;2.80;99.90
1083;DHT22;530;51.448;7.238;2022-12-11T03:11:53;2.90;99.90
1083;DHT22;530;51.448;7.238;2022-12-11T03:14:19;2.80;99.90
1083;DHT22;530;51.448;7.238;2022-12-11T03:17:01;2.80;99.90
1083;DHT22;530;51.448;7.238;2022-12-11T03:19:35;2.80;99.90
1083;DHT22;530;51.448;7.238;2022-12-11T03:22:16;3.00;99.90
1083;DHT22;530;51.448;7.238;2022-12-11T03:24:45;2.80;99.90
1083;DHT22;530;51.448;7.238;2022-12-11T03:27:21;2.70;99.90
1083;DHT22;530;51.448;7.238;2022-12-11T03:30:04;2.90;99.90
1083;DHT22;530;51.448;7.238;2022-12-11T03:32:49;2.90;99.90
1083;DHT22;530;51.448;7.238;2022-12-11T03:35:34;2.80;99.90
1083;DHT22;530;51.448;7.238;2022-12-11T03:38:04;2.70;99.90
1083;DHT22;530;51.448;7.238;2022-12-11T03:40:32;2.80;99.90
1083;DHT22;530;51.448;7.238;2022-12-11T03:42:59;2.80;99.90
1083;DHT22;530;51.448;7.238;2022-12-11T03:45:26;2.70;99.90
1083;DHT22;530;51.448;7.238;2022-12-11T03:47:55;2.90;99.90
1083;DHT22;530;51.448;7.238;2022-12-11T03:50:25;2.90;99.90
1083;DHT22;530;51.448;7.238;2022-12-11T03:52:53;2.70;99.90
1083;DHT22;530;51.448;7.238;2022-12-11T03:55:20;2.80;99.90
1083;DHT22;530;51.448;7.238;2022-12-11T03:57:47;2.80;99.90
1083;DHT22;530;51.448;7.238;2022-12-11T04:00:16;2.90;99.90
1083;DHT22;530;51.448;7.238;2022-12-11T04:02:42;2.60;99.90
1083;DHT22;530;51.448;7.238;2022-12-11T04:05:10;3.00;99.90
1083;DHT22;530;51.448;7.238;2022-12-11T04:07:35;2.60;99.90
1083;DHT22;530;51.448;7.238;2022-12-11T04:10:02;2.70;99.90
1083;DHT22;530;51.448;7.238;2022-12-11T04:12:28;2.70;99.90
1083;DHT22;530;51.448;7.238;2022-12-11T04:14:53;2.80;99.90
1083;DHT22;530;51.448;7.238;2022-12-11T04:17:33;2.70;99.90
1083;DHT22;530;51.448;7.238;2022-12-11T04:20:18;2.90;99.90
1083;DHT22;530;51.448;7.238;2022-12-11T04:23:11;2.70;99.90
1083;DHT22;530;51.448;7.238;2022-12-11T04:26:06;2.70;99.90
1083;DHT22;530;51.448;7.238;2022-12-11T04:28:33;2.70;99.90
1083;DHT22;530;51.448;7.238;2022-12-11T04:30:58;2.80;99.90
1083;DHT22;530;51.448;7.238;2022-12-11T04:33:24;2.80;99.90
1083;DHT22;530;51.448;7.238;2022-12-11T04:35:50;2.80;99.90
1083;DHT22;530;51.448;7.238;2022-12-11T04:38:16;2.60;99.90
1083;DHT22;530;51.448;7.238;2022-12-11T04:40:41;2.70;99.90
1083;DHT22;530;51.448;7.238;2022-12-11T04:43:07;2.70;99.90
1083;DHT22;530;51.448;7.238;2022-12-11T04:45:32;2.90;99.90
1083;DHT22;530;51.448;7.238;2022-12-11T04:47:58;2.70;99.90
1083;DHT22;530;51.448;7.238;2022-12-11T04:50:24;2.90;99.90
1083;DHT22;530;51.448;7.238;2022-12-11T04:52:53;3.00;99.90
1083;DHT22;530;51.448;7.238;2022-12-11T04:55:19;2.70;99.90
1083;DHT22;530;51.448;7.238;2022-12-11T04:57:45;2.70;99.90
1083;DHT22;530;51.448;7.238;2022-12-11T05:00:11;2.80;99.90
1083;DHT22;530;51.448;7.238;2022-12-11T05:02:39;2.80;99.90
1083;DHT22;530;51.448;7.238;2022-12-11T05:05:06;2.80;99.90
1083;DHT22;530;51.448;7.238;2022-12-11T05:07:34;2.50;99.90
1083;DHT22;530;51.448;7.238;2022-12-11T05:10:00;2.90;99.90
1083;DHT22;530;51.448;7.238;2022-12-11T05:12:26;2.60;99.90
1083;DHT22;530;51.448;7.238;2022-12-11T05:14:53;2.50;99.90
1083;DHT22;530;51.448;7.238;2022-12-11T05:17:20;2.80;99.90
1083;DHT22;530;51.448;7.238;2022-12-11T05:19:47;2.50;99.90
1083;DHT22;530;51.448;7.238;2022-12-11T05:22:13;2.50;99.90
1083;DHT22;530;51.448;7.238;2022-12-11T05:24:39;2.70;99.90
1083;DHT22;530;51.448;7.238;2022-12-11T05:27:05;2.60;99.90
1083;DHT22;530;51.448;7.238;2022-12-11T05:29:31;2.60;99.90
1083;DHT22;530;51.448;7.238;2022-12-11T05:31:56;2.70;99.90
1083;DHT22;530;51.448;7.238;2022-12-11T05:34:25;2.80;99.90
1083;DHT22;530;51.448;7.238;2022-12-11T05:36:50;2.70;99.90
1083;DHT22;530;51.448;7.238;2022-12-11T05:39:16;2.60;99.90
1083;DHT22;530;51.448;7.238;2022-12-11T05:41:41;2.70;99.90
1083;DHT22;530;51.448;7.238;2022-12-11T05:44:11;2.50;99.90
1083;DHT22;530;51.448;7.238;2022-12-11T05:46:37;2.50;99.90
1083;DHT22;530;51.448;7.238;2022-12-11T05:49:03;2.70;99.90
1083;DHT22;530;51.448;7.238;2022-12-11T05:51:29;2.70;99.90
1083;DHT22;530;51.448;7.238;2022-12-11T05:53:56;2.70;99.90
1083;DHT22;530;51.448;7.238;2022-12-11T05:56:32;2.70;99.90
1083;DHT22;530;51.448;7.238;2022-12-11T05:58:59;2.80;99.90
1083;DHT22;530;51.448;7.238;2022-12-11T06:01:31;2.60;99.90
1083;DHT22;530;51.448;7.238;2022-12-11T06:03:57;2.50;99.90
1083;DHT22;530;51.448;7.238;2022-12-11T06:06:24;2.50;99.90
1083;DHT22;530;51.448;7.238;2022-12-11T06:08:54;2.70;99.90
1083;DHT22;530;51.448;7.238;2022-12-11T06:11:21;2.60;99.90
1083;DHT22;530;51.448;7.238;2022-12-11T06:13:47;2.50;99.90
1083;DHT22;530;51.448;7.238;2022-12-11T06:16:13;2.70;99.90
1083;DHT22;530;51.448;7.238;2022-12-11T06:18:41;2.50;99.90
1083;DHT22;530;51.448;7.238;2022-12-11T06:21:27;2.60;99.90
1083;DHT22;530;51.448;7.238;2022-12-11T06:23:54;2.50;99.90
1083;DHT22;530;51.448;7.238;2022-12-11T06:26:21;2.50;99.90
1083;DHT22;530;51.448;7.238;2022-12-11T06:28:47;2.50;99.90
1083;DHT22;530;51.448;7.238;2022-12-11T06:31:13;2.50;99.90
1083;DHT22;530;51.448;7.238;2022-12-11T06:33:39;2.50;99.90
1083;DHT22;530;51.448;7.238;2022-12-11T06:36:07;2.70;99.90
1083;DHT22;530;51.448;7.238;2022-12-11T06:38:33;2.50;99.90
1083;DHT22;530;51.448;7.238;2022-12-11T06:41:01;2.60;99.90
1083;DHT22;530;51.448;7.238;2022-12-11T06:43:30;2.60;99.90
1083;DHT22;530;51.448;7.238;2022-12-11T06:45:55;2.60;99.90
1083;DHT22;530;51.448;7.238;2022-12-11T06:48:21;2.70;99.90
1083;DHT22;530;51.448;7.238;2022-12-11T06:50:47;2.60;99.90
1083;DHT22;530;51.448;7.238;2022-12-11T06:53:13;2.70;99.90
1083;DHT22;530;51.448;7.238;2022-12-11T06:55:39;2.60;99.90
1083;DHT22;530;51.448;7.238;2022-12-11T06:58:06;2.70;99.90
1083;DHT22;530;51.448;7.238;2022-12-11T07:00:34;2.80;99.90
1083;DHT22;530;51.448;7.238;2022-12-11T07:03:00;2.60;99.90
1083;DHT22;530;51.448;7.238;2022-12-11T07:05:25;2.80;99.90
1083;DHT22;530;51.448;7.238;2022-12-11T07:07:54;2.70;99.90
1083;DHT22;530;51.448;7.238;2022-12-11T07:10:20;2.80;99.90
1083;DHT22;530;51.448;7.238;2022-12-11T07:12:46;2.90;99.90
1083;DHT22;530;51.448;7.238;2022-12-11T07:15:12;2.60;99.90
1083;DHT22;530;51.448;7.238;2022-12-11T07:17:37;2.80;99.90
1083;DHT22;530;51.448;7.238;2022-12-11T07:20:03;2.70;99.90
1083;DHT22;530;51.448;7.238;2022-12-11T07:22:29;2.80;99.90
1083;DHT22;530;51.448;7.238;2022-12-11T07:24:55;2.60;99.90
1083;DHT22;530;51.448;7.238;2022-12-11T07:27:21;2.90;99.90
1083;DHT22;530;51.448;7.238;2022-12-11T07:29:46;2.60;99.90
1083;DHT22;530;51.448;7.238;2022-12-11T07:32:12;2.80;99.90
1083;DHT22;530;51.448;7.238;2022-12-11T07:34:38;2.80;99.90
1083;DHT22;530;51.448;7.238;2022-12-11T07:37:04;2.60;99.90
1083;DHT22;530;51.448;7.238;2022-12-11T07:39:30;2.70;99.90
1083;DHT22;530;51.448;7.238;2022-12-11T07:41:55;2.60;99.90
1083;DHT22;530;51.448;7.238;2022-12-11T07:44:21;2.70;99.90
1083;DHT22;530;51.448;7.238;2022-12-11T07:46:47;2.80;99.90
1083;DHT22;530;51.448;7.238;2022-12-11T07:49:12;2.90;99.90
1083;DHT22;530;51.448;7.238;2022-12-11T07:51:38;2.80;99.90
1083;DHT22;530;51.448;7.238;2022-12-11T07:54:10;3.00;99.90
1083;DHT22;530;51.448;7.238;2022-12-11T07:56:37;2.90;99.90
1083;DHT22;530;51.448;7.238;2022-12-11T07:59:04;3.00;99.90
1083;DHT22;530;51.448;7.238;2022-12-11T08:01:31;2.70;99.90
1083;DHT22;530;51.448;7.238;2022-12-11T08:03:57;2.70;99.90
1083;DHT22;530;51.448;7.238;2022-12-11T08:06:26;2.80;99.90
1083;DHT22;530;51.448;7.238;2022-12-11T08:08:54;2.80;99.90
1083;DHT22;530;51.448;7.238;2022-12-11T08:11:19;2.80;99.90
1083;DHT22;530;51.448;7.238;2022-12-11T08:13:45;3.00;99.90
1083;DHT22;530;51.448;7.238;2022-12-11T08:16:12;2.70;99.90
1083;DHT22;530;51.448;7.238;2022-12-11T08:18:39;2.60;99.90
1083;DHT22;530;51.448;7.238;2022-12-11T08:21:14;2.80;99.90
1083;DHT22;530;51.448;7.238;2022-12-11T08:23:40;2.80;99.90
1083;DHT22;530;51.448;7.238;2022-12-11T08:26:08;2.80;99.90
1083;DHT22;530;51.448;7.238;2022-12-11T08:28:35;2.70;99.90
1083;DHT22;530;51.448;7.238;2022-12-11T08:31:04;2.70;99.90
1083;DHT22;530;51.448;7.238;2022-12-11T08:33:30;2.80;99.90
1083;DHT22;530;51.448;7.238;2022-12-11T08:35:56;2.60;99.90
1083;DHT22;530;51.448;7.238;2022-12-11T08:38:23;2.60;99.90
1083;DHT22;530;51.448;7.238;2022-12-11T08:40:48;2.60;99.90
1083;DHT22;530;51.448;7.238;2022-12-11T08:43:14;2.60;99.90
1083;DHT22;530;51.448;7.238;2022-12-11T08:45:39;2.90;99.90
1083;DHT22;530;51.448;7.238;2022-12-11T08:48:05;2.80;99.90
1083;DHT22;530;51.448;7.238;2022-12-11T08:50:31;2.80;99.90
1083;DHT22;530;51.448;7.238;2022-12-11T08:52:57;2.70;99.90
1083;DHT22;530;51.448;7.238;2022-12-11T08:55:23;2.80;99.90
1083;DHT22;530;51.448;7.238;2022-12-11T08:57:48;3.00;99.90
1083;DHT22;530;51.448;7.238;2022-12-11T09:00:15;2.80;99.90
1083;DHT22;530;51.448;7.238;2022-12-11T09:02:41;2.90;99.90
1083;DHT22;530;51.448;7.238;2022-12-11T09:05:07;3.00;99.90
1083;DHT22;530;51.448;7.238;2022-12-11T09:07:35;2.70;99.90
1083;DHT22;530;51.448;7.238;2022-12-11T09:10:01;2.90;99.90
1083;DHT22;530;51.448;7.238;2022-12-11T09:12:27;2.70;99.90
1083;DHT22;530;51.448;7.238;2022-12-11T09:14:53;3.00;99.90
1083;DHT22;530;51.448;7.238;2022-12-11T09:17:18;2.80;99.90
1083;DHT22;530;51.448;7.238;2022-12-11T09:19:44;3.00;99.90
1083;DHT22;530;51.448;7.238;2022-12-11T09:22:10;2.90;99.90
1083;DHT22;530;51.448;7.238;2022-12-11T09:24:37;3.10;99.90
1083;DHT22;530;51.448;7.238;2022-12-11T09:27:04;2.90;99.90
1083;DHT22;530;51.448;7.238;2022-12-11T09:29:30;2.90;99.90
1083;DHT22;530;51.448;7.238;2022-12-11T09:31:56;3.00;99.90
1083;DHT22;530;51.448;7.238;2022-12-11T09:34:22;2.90;99.90
1083;DHT22;530;51.448;7.238;2022-12-11T09:36:47;3.00;99.90
1083;DHT22;530;51.448;7.238;2022-12-11T09:39:14;2.70;99.90
1083;DHT22;530;51.448;7.238;2022-12-11T09:42:45;2.80;99.90
1083;DHT22;530;51.448;7.238;2022-12-11T09:45:02;2.80;99.90
1083;DHT22;530;51.448;7.238;2022-12-11T09:55:12;2.80;99.90
1083;DHT22;530;51.448;7.238;2022-12-11T10:00:37;2.70;99.90
1083;DHT22;530;51.448;7.238;2022-12-11T10:05:59;2.80;99.90
1083;DHT22;530;51.448;7.238;2022-12-11T10:16:44;3.10;99.90
1083;DHT22;530;51.448;7.238;2022-12-11T10:19:19;3.30;99.90
1083;DHT22;530;51.448;7.238;2022-12-11T10:21:48;3.20;99.90
1083;DHT22;530;51.448;7.238;2022-12-11T10:26:45;3.10;99.90
1083;DHT22;530;51.448;7.238;2022-12-11T10:29:13;3.10;99.90
1083;DHT22;530;51.448;7.238;2022-12-11T10:31:58;2.90;99.90
1083;DHT22;530;51.448;7.238;2022-12-11T10:34:34;2.90;99.90
1083;DHT22;530;51.448;7.238;2022-12-11T10:37:01;3.10;99.90
1083;DHT22;530;51.448;7.238;2022-12-11T10:39:26;3.00;99.90
1083;DHT22;530;51.448;7.238;2022-12-11T10:41:53;3.10;99.90
1083;DHT22;530;51.448;7.238;2022-12-11T10:44:28;3.00;99.90
1083;DHT22;530;51.448;7.238;2022-12-11T10:47:05;3.30;99.90
1083;DHT22;530;51.448;7.238;2022-12-11T10:49:33;3.00;99.90
1083;DHT22;530;51.448;7.238;2022-12-11T10:52:00;2.90;99.90
1083;DHT22;530;51.448;7.238;2022-12-11T10:56:57;3.30;99.90
1083;DHT22;530;51.448;7.238;2022-12-11T10:59:43;3.10;99.90
1083;DHT22;530;51.448;7.238;2022-12-11T11:02:30;3.10;99.90
1083;DHT22;530;51.448;7.238;2022-12-11T11:04:58;3.20;99.90
1083;DHT22;530;51.448;7.238;2022-12-11T11:07:27;3.20;99.90
1083;DHT22;530;51.448;7.238;2022-12-11T11:12:46;3.00;99.90
1083;DHT22;530;51.448;7.238;2022-12-11T11:15:26;3.00;99.90
1083;DHT22;530;51.448;7.238;2022-12-11T11:17:54;3.10;99.90
1083;DHT22;530;51.448;7.238;2022-12-11T11:20:28;3.20;99.90
1083;DHT22;530;51.448;7.238;2022-12-11T11:22:56;3.20;99.90
1083;DHT22;530;51.448;7.238;2022-12-11T11:25:26;3.00;99.90
1083;DHT22;530;51.448;7.238;2022-12-11T11:27:54;3.00;99.90
1083;DHT22;530;51.448;7.238;2022-12-11T11:30:24;2.90;99.90
1083;DHT22;530;51.448;7.238;2022-12-11T11:32:53;3.20;99.90
1083;DHT22;530;51.448;7.238;2022-12-11T11:35:25;3.00;99.90
1083;DHT22;530;51.448;7.238;2022-12-11T11:38:04;3.00;99.90
1083;DHT22;530;51.448;7.238;2022-12-11T11:43:35;3.00;99.90
1083;DHT22;530;51.448;7.238;2022-12-11T11:46:26;2.90;99.90
1083;DHT22;530;51.448;7.238;2022-12-11T11:54:27;3.20;99.90
1083;DHT22;530;51.448;7.238;2022-12-11T11:56:55;3.10;99.90
1083;DHT22;530;51.448;7.238;2022-12-11T11:59:32;3.00;99.90
1083;DHT22;530;51.448;7.238;2022-12-11T12:01:59;3.10;99.90
1083;DHT22;530;51.448;7.238;2022-12-11T12:04:31;3.10;99.90
1083;DHT22;530;51.448;7.238;2022-12-11T12:07:07;3.10;99.90
1083;DHT22;530;51.448;7.238;2022-12-11T12:12:32;2.90;99.90
1083;DHT22;530;51.448;7.238;2022-12-11T12:17:51;3.10;99.90
1083;DHT22;530;51.448;7.238;2022-12-11T12:20:27;3.00;99.90
1083;DHT22;530;51.448;7.238;2022-12-11T12:23:02;3.00;99.90
1083;DHT22;530;51.448;7.238;2022-12-11T12:25:40;3.30;99.90
1083;DHT22;530;51.448;7.238;2022-12-11T12:28:38;3.20;99.90
1083;DHT22;530;51.448;7.238;2022-12-11T12:31:12;3.20;99.90
1083;DHT22;530;51.448;7.238;2022-12-11T12:47:38;3.20;99.90
1083;DHT22;530;51.448;7.238;2022-12-11T12:50:10;3.30;99.90
1083;DHT22;530;51.448;7.238;2022-12-11T12:52:38;3.30;99.90
1083;DHT22;530;51.448;7.238;2022-12-11T12:55:18;3.20;99.90
1083;DHT22;530;51.448;7.238;2022-12-11T12:58:05;3.30;99.90
1083;DHT22;530;51.448;7.238;2022-12-11T13:00:41;3.40;99.90
1083;DHT22;530;51.448;7.238;2022-12-11T13:03:13;3.30;99.90
1083;DHT22;530;51.448;7.238;2022-12-11T13:05:53;3.60;99.90
1083;DHT22;530;51.448;7.238;2022-12-11T13:08:28;3.50;99.90
1083;DHT22;530;51.448;7.238;2022-12-11T13:11:04;3.50;99.90
1083;DHT22;530;51.448;7.238;2022-12-11T13:13:43;3.50;99.90
1083;DHT22;530;51.448;7.238;2022-12-11T13:18:43;3.50;99.90
1083;DHT22;530;51.448;7.238;2022-12-11T13:21:29;3.60;99.90
1083;DHT22;530;51.448;7.238;2022-12-11T13:26:39;3.50;99.90
1083;DHT22;530;51.448;7.238;2022-12-11T13:29:05;3.50;99.90
1083;DHT22;530;51.448;7.238;2022-12-11T13:31:35;3.30;99.90
1083;DHT22;530;51.448;7.238;2022-12-11T13:34:15;3.50;99.90
1083;DHT22;530;51.448;7.238;2022-12-11T13:36:46;3.30;99.90
1083;DHT22;530;51.448;7.238;2022-12-11T13:39:18;3.60;99.90
1083;DHT22;530;51.448;7.238;2022-12-11T13:41:49;3.40;99.90
1083;DHT22;530;51.448;7.238;2022-12-11T13:44:32;3.40;99.90
1083;DHT22;530;51.448;7.238;2022-12-11T13:47:01;3.70;99.90
1083;DHT22;530;51.448;7.238;2022-12-11T13:49:36;3.40;99.90
1083;DHT22;530;51.448;7.238;2022-12-11T13:52:04;3.60;99.90
1083;DHT22;530;51.448;7.238;2022-12-11T13:54:32;3.60;99.90
1083;DHT22;530;51.448;7.238;2022-12-11T13:59:33;3.40;99.90
1083;DHT22;530;51.448;7.238;2022-12-11T14:02:14;3.50;99.90
1083;DHT22;530;51.448;7.238;2022-12-11T14:04:42;3.60;99.90
1083;DHT22;530;51.448;7.238;2022-12-11T14:07:09;3.40;99.90
1083;DHT22;530;51.448;7.238;2022-12-11T14:09:40;3.40;99.90
1083;DHT22;530;51.448;7.238;2022-12-11T14:12:14;3.30;99.90
1083;DHT22;530;51.448;7.238;2022-12-11T14:14:46;3.50;99.90
1083;DHT22;530;51.448;7.238;2022-12-11T14:17:26;3.60;99.90
1083;DHT22;530;51.448;7.238;2022-12-11T14:19:53;3.60;99.90
1083;DHT22;530;51.448;7.238;2022-12-11T14:22:22;3.50;99.90
1083;DHT22;530;51.448;7.238;2022-12-11T14:24:50;3.40;99.90
1083;DHT22;530;51.448;7.238;2022-12-11T14:27:16;3.50;99.90
1083;DHT22;530;51.448;7.238;2022-12-11T14:29:43;3.60;99.90
1083;DHT22;530;51.448;7.238;2022-12-11T14:32:23;3.70;99.90
1083;DHT22;530;51.448;7.238;2022-12-11T14:34:52;3.60;99.90
1083;DHT22;530;51.448;7.238;2022-12-11T14:37:20;3.30;99.90
1083;DHT22;530;51.448;7.238;2022-12-11T14:40:06;3.60;99.90
1083;DHT22;530;51.448;7.238;2022-12-11T14:42:37;3.50;99.90
1083;DHT22;530;51.448;7.238;2022-12-11T14:45:19;3.60;99.90
1083;DHT22;530;51.448;7.238;2022-12-11T14:47:46;3.60;99.90
1083;DHT22;530;51.448;7.238;2022-12-11T14:50:22;3.40;99.90
1083;DHT22;530;51.448;7.238;2022-12-11T14:52:54;3.70;99.90
1083;DHT22;530;51.448;7.238;2022-12-11T14:55:24;3.60;99.90
1083;DHT22;530;51.448;7.238;2022-12-11T14:57:55;3.60;99.90
1083;DHT22;530;51.448;7.238;2022-12-11T15:03:03;3.50;99.90
1083;DHT22;530;51.448;7.238;2022-12-11T15:05:30;3.60;99.90
1083;DHT22;530;51.448;7.238;2022-12-11T15:10:36;3.60;99.90
1083;DHT22;530;51.448;7.238;2022-12-11T15:13:05;3.40;99.90
1083;DHT22;530;51.448;7.238;2022-12-11T15:15:45;3.60;99.90
1083;DHT22;530;51.448;7.238;2022-12-11T15:18:24;3.40;99.90
1083;DHT22;530;51.448;7.238;2022-12-11T15:20:56;3.30;99.90
1083;DHT22;530;51.448;7.238;2022-12-11T15:23:22;3.70;99.90
1083;DHT22;530;51.448;7.238;2022-12-11T15:25:54;3.70;99.90
1083;DHT22;530;51.448;7.238;2022-12-11T15:28:32;3.60;99.90
1083;DHT22;530;51.448;7.238;2022-12-11T15:31:01;3.60;99.90
1083;DHT22;530;51.448;7.238;2022-12-11T15:33:28;3.70;99.90
1083;DHT22;530;51.448;7.238;2022-12-11T15:35:55;3.50;99.90
1083;DHT22;530;51.448;7.238;2022-12-11T15:38:36;3.50;99.90
1083;DHT22;530;51.448;7.238;2022-12-11T15:41:05;3.50;99.90
1083;DHT22;530;51.448;7.238;2022-12-11T15:43:36;3.60;99.90
1083;DHT22;530;51.448;7.238;2022-12-11T15:46:03;3.40;99.90
1083;DHT22;530;51.448;7.238;2022-12-11T15:48:29;3.60;99.90
1083;DHT22;530;51.448;7.238;2022-12-11T15:50:55;3.40;99.90
1083;DHT22;530;51.448;7.238;2022-12-11T15:53:20;3.40;99.90
1083;DHT22;530;51.448;7.238;2022-12-11T15:55:47;3.70;99.90
1083;DHT22;530;51.448;7.238;2022-12-11T15:58:15;3.50;99.90
1083;DHT22;530;51.448;7.238;2022-12-11T16:00:42;3.70;99.90
1083;DHT22;530;51.448;7.238;2022-12-11T16:03:15;3.60;99.90
1083;DHT22;530;51.448;7.238;2022-12-11T16:05:42;3.40;99.90
1083;DHT22;530;51.448;7.238;2022-12-11T16:08:12;3.60;99.90
1083;DHT22;530;51.448;7.238;2022-12-11T16:10:43;3.70;99.90
1083;DHT22;530;51.448;7.238;2022-12-11T16:13:10;3.40;99.90
1083;DHT22;530;51.448;7.238;2022-12-11T16:15:37;3.60;99.90
1083;DHT22;530;51.448;7.238;2022-12-11T16:18:10;3.70;99.90
1083;DHT22;530;51.448;7.238;2022-12-11T16:20:38;3.60;99.90
1083;DHT22;530;51.448;7.238;2022-12-11T16:23:04;3.40;99.90
1083;DHT22;530;51.448;7.238;2022-12-11T16:25:30;3.40;99.90
1083;DHT22;530;51.448;7.238;2022-12-11T16:27:58;3.50;99.90
1083;DHT22;530;51.448;7.238;2022-12-11T16:30:24;3.60;99.90
1083;DHT22;530;51.448;7.238;2022-12-11T16:32:51;3.50;99.90
1083;DHT22;530;51.448;7.238;2022-12-11T16:35:17;3.60;99.90
1083;DHT22;530;51.448;7.238;2022-12-11T16:37:43;3.50;99.90
1083;DHT22;530;51.448;7.238;2022-12-11T16:40:10;3.60;99.90
1083;DHT22;530;51.448;7.238;2022-12-11T16:42:37;3.50;99.90
1083;DHT22;530;51.448;7.238;2022-12-11T16:45:05;3.70;99.90
1083;DHT22;530;51.448;7.238;2022-12-11T16:47:31;3.50;99.90
1083;DHT22;530;51.448;7.238;2022-12-11T16:49:58;3.60;99.90
1083;DHT22;530;51.448;7.238;2022-12-11T16:52:23;3.60;99.90
1083;DHT22;530;51.448;7.238;2022-12-11T16:54:49;3.40;99.90
1083;DHT22;530;51.448;7.238;2022-12-11T16:57:15;3.70;99.90
1083;DHT22;530;51.448;7.238;2022-12-11T16:59:40;3.60;99.90
1083;DHT22;530;51.448;7.238;2022-12-11T17:02:09;3.40;99.90
1083;DHT22;530;51.448;7.238;2022-12-11T17:04:37;3.60;99.90
1083;DHT22;530;51.448;7.238;2022-12-11T17:07:03;3.50;99.90
1083;DHT22;530;51.448;7.238;2022-12-11T17:09:29;3.80;99.90
1083;DHT22;530;51.448;7.238;2022-12-11T17:11:55;3.70;99.90
1083;DHT22;530;51.448;7.238;2022-12-11T17:14:21;3.70;99.90
1083;DHT22;530;51.448;7.238;2022-12-11T17:16:47;3.70;99.90
1083;DHT22;530;51.448;7.238;2022-12-11T17:19:13;3.70;99.90
1083;DHT22;530;51.448;7.238;2022-12-11T17:21:39;3.50;99.90
1083;DHT22;530;51.448;7.238;2022-12-11T17:24:06;3.60;99.90
1083;DHT22;530;51.448;7.238;2022-12-11T17:26:31;3.60;99.90
1083;DHT22;530;51.448;7.238;2022-12-11T17:28:57;3.80;99.90
1083;DHT22;530;51.448;7.238;2022-12-11T17:31:24;3.60;99.90
1083;DHT22;530;51.448;7.238;2022-12-11T17:33:50;3.60;99.90
1083;DHT22;530;51.448;7.238;2022-12-11T17:36:18;3.60;99.90
1083;DHT22;530;51.448;7.238;2022-12-11T17:38:44;3.50;99.90
1083;DHT22;530;51.448;7.238;2022-12-11T17:41:11;3.40;99.90
1083;DHT22;530;51.448;7.238;2022-12-11T17:43:37;3.60;99.90
1083;DHT22;530;51.448;7.238;2022-12-11T17:46:03;3.40;99.90
1083;DHT22;530;51.448;7.238;2022-12-11T17:48:29;3.80;99.90
1083;DHT22;530;51.448;7.238;2022-12-11T17:50:55;3.80;99.90
1083;DHT22;530;51.448;7.238;2022-12-11T17:53:22;3.70;99.90
1083;DHT22;530;51.448;7.238;2022-12-11T17:55:48;3.70;99.90
1083;DHT22;530;51.448;7.238;2022-12-11T17:58:19;3.60;99.90
1083;DHT22;530;51.448;7.238;2022-12-11T18:00:48;3.50;99.90
1083;DHT22;530;51.448;7.238;2022-12-11T18:03:14;3.40;99.90
1083;DHT22;530;51.448;7.238;2022-12-11T18:05:49;3.60;99.90
1083;DHT22;530;51.448;7.238;2022-12-11T18:08:17;3.40;99.90
1083;DHT22;530;51.448;7.238;2022-12-11T18:10:44;3.50;99.90
1083;DHT22;530;51.448;7.238;2022-12-11T18:13:10;3.50;99.90